JBU1101 KJFK-KFLL
Flight info
| Callsign | JBU1101 |
|---|---|
| Flight time | N/A |
| Altitude | 36000 |
| Route | WAVEY EMJAY Q167 ZJAAY Q97 PRMUS CUUDA3 |
| Aircraft | A320/M-SDE3FGHIRWY/LB1 |
Departure
| Time | 2026-04-30 20:44 |
|---|---|
| Airport | John F. Kennedy International Airport (KJFK) |
Arrival
| Time | N/A |
|---|---|
| Airport | Fort Lauderdale Hollywood International Airport (KFLL) |
| Time | Latitude | Longitude | Altitude | Speed | Heading |
|---|---|---|---|---|---|
| 2026-04-30 20:11 | 40.64635 | -73.77404 | 21 ft | 0 kts | 179° |
| 2026-04-30 20:30 | 40.64668 | -73.77409 | 22 ft | 2 kts | 118° |
| 2026-04-30 20:32 | 40.64667 | -73.77405 | 21 ft | 0 kts | 117° |
| 2026-04-30 20:34 | 40.64724 | -73.77373 | 20 ft | 6 kts | 331° |
| 2026-04-30 20:34 | 40.64742 | -73.77383 | 22 ft | 3 kts | 344° |
| 2026-04-30 20:35 | 40.64764 | -73.77367 | 20 ft | 5 kts | 28° |
| 2026-04-30 20:35 | 40.64803 | -73.77336 | 20 ft | 8 kts | 32° |
| 2026-04-30 20:35 | 40.64888 | -73.77341 | 20 ft | 8 kts | 300° |
| 2026-04-30 20:36 | 40.64921 | -73.77415 | 20 ft | 10 kts | 301° |
| 2026-04-30 20:36 | 40.64957 | -73.77465 | 20 ft | 7 kts | 339° |
| 2026-04-30 20:36 | 40.65063 | -73.77408 | 20 ft | 10 kts | 24° |
| 2026-04-30 20:37 | 40.65130 | -73.77363 | 20 ft | 9 kts | 53° |
| 2026-04-30 20:37 | 40.65120 | -73.77292 | 23 ft | 9 kts | 120° |
| 2026-04-30 20:37 | 40.65084 | -73.77217 | 21 ft | 11 kts | 121° |
| 2026-04-30 20:37 | 40.65044 | -73.77127 | 21 ft | 12 kts | 121° |
| 2026-04-30 20:38 | 40.64997 | -73.77023 | 21 ft | 14 kts | 121° |
| 2026-04-30 20:38 | 40.64942 | -73.76904 | 21 ft | 16 kts | 121° |
| 2026-04-30 20:38 | 40.64885 | -73.76777 | 21 ft | 12 kts | 120° |
| 2026-04-30 20:39 | 40.64944 | -73.76647 | 21 ft | 11 kts | 30° |
| 2026-04-30 20:39 | 40.65018 | -73.76589 | 22 ft | 13 kts | 31° |
| 2026-04-30 20:39 | 40.65094 | -73.76526 | 21 ft | 10 kts | 40° |
| 2026-04-30 20:40 | 40.65092 | -73.76454 | 24 ft | 0 kts | 122° |
| 2026-04-30 20:42 | 40.65092 | -73.76453 | 24 ft | 0 kts | 122° |
| 2026-04-30 20:42 | 40.65071 | -73.76409 | 23 ft | 4 kts | 122° |
| 2026-04-30 20:43 | 40.65045 | -73.76363 | 22 ft | 7 kts | 138° |
| 2026-04-30 20:43 | 40.64992 | -73.76381 | 22 ft | 9 kts | 210° |
| 2026-04-30 20:43 | 40.64890 | -73.76462 | 21 ft | 41 kts | 211° |
| 2026-04-30 20:44 | 40.63715 | -73.77390 | 22 ft | 146 kts | 211° |
| 2026-04-30 20:44 | 40.62836 | -73.78115 | 566 ft | 141 kts | 212° |
| 2026-04-30 20:44 | 40.61046 | -73.79592 | 1585 ft | 157 kts | 213° |
| 2026-04-30 20:45 | 40.59107 | -73.81169 | 2413 ft | 181 kts | 214° |
| 2026-04-30 20:45 | 40.57959 | -73.82079 | 2631 ft | 204 kts | 213° |
| 2026-04-30 20:45 | 40.56669 | -73.83101 | 2862 ft | 229 kts | 213° |
| 2026-04-30 20:46 | 40.52152 | -73.86682 | 4887 ft | 263 kts | 211° |
| 2026-04-30 20:46 | 40.50385 | -73.87394 | 5753 ft | 272 kts | 186° |
| 2026-04-30 20:47 | 40.46897 | -73.85446 | 7401 ft | 292 kts | 131° |
| 2026-04-30 20:47 | 40.45731 | -73.83240 | 8218 ft | 295 kts | 125° |
| 2026-04-30 20:48 | 40.43437 | -73.78673 | 9867 ft | 303 kts | 126° |
| 2026-04-30 20:48 | 40.42272 | -73.76354 | 10385 ft | 316 kts | 126° |
| 2026-04-30 20:48 | 40.41009 | -73.73859 | 10572 ft | 339 kts | 126° |
| 2026-04-30 20:48 | 40.39655 | -73.71194 | 10701 ft | 362 kts | 127° |
| 2026-04-30 20:49 | 40.38229 | -73.68392 | 11106 ft | 373 kts | 127° |
| 2026-04-30 20:49 | 40.36796 | -73.65574 | 11688 ft | 378 kts | 127° |
| 2026-04-30 20:49 | 40.35332 | -73.62693 | 12308 ft | 381 kts | 128° |
| 2026-04-30 20:50 | 40.32354 | -73.56846 | 13003 ft | 386 kts | 128° |
| 2026-04-30 20:50 | 40.30858 | -73.53909 | 13299 ft | 389 kts | 129° |
| 2026-04-30 20:50 | 40.29348 | -73.50952 | 13977 ft | 391 kts | 129° |
| 2026-04-30 20:50 | 40.27843 | -73.48010 | 14537 ft | 394 kts | 129° |
| 2026-04-30 20:51 | 40.26305 | -73.45015 | 15074 ft | 397 kts | 129° |
| 2026-04-30 20:51 | 40.22962 | -73.39270 | 16116 ft | 396 kts | 142° |
| 2026-04-30 20:51 | 40.20850 | -73.36973 | 16650 ft | 393 kts | 150° |
| 2026-04-30 20:52 | 40.18610 | -73.34886 | 17192 ft | 396 kts | 151° |
| 2026-04-30 20:52 | 40.16379 | -73.32808 | 17736 ft | 399 kts | 152° |
| 2026-04-30 20:52 | 40.11360 | -73.30154 | 18689 ft | 384 kts | 179° |
| 2026-04-30 20:53 | 40.08718 | -73.30113 | 19147 ft | 378 kts | 191° |
| 2026-04-30 20:53 | 40.06192 | -73.30877 | 19650 ft | 372 kts | 205° |
| 2026-04-30 20:53 | 40.03900 | -73.32385 | 20175 ft | 367 kts | 218° |
| 2026-04-30 20:54 | 39.99987 | -73.36627 | 21156 ft | 368 kts | 224° |
| 2026-04-30 20:54 | 39.98038 | -73.38807 | 21616 ft | 370 kts | 223° |
| 2026-04-30 20:54 | 39.96072 | -73.40994 | 22085 ft | 372 kts | 223° |
| 2026-04-30 20:55 | 39.92128 | -73.45379 | 22796 ft | 376 kts | 224° |
| 2026-04-30 20:55 | 39.90130 | -73.47601 | 23057 ft | 378 kts | 224° |
| 2026-04-30 20:55 | 39.88127 | -73.49831 | 23504 ft | 380 kts | 224° |
| 2026-04-30 20:56 | 39.84081 | -73.54341 | 24248 ft | 383 kts | 224° |
| 2026-04-30 20:56 | 39.82077 | -73.56571 | 24604 ft | 385 kts | 224° |
| 2026-04-30 20:56 | 39.77988 | -73.61124 | 25318 ft | 388 kts | 224° |
| 2026-04-30 20:57 | 39.76622 | -73.62645 | 25551 ft | 389 kts | 224° |
| 2026-04-30 20:57 | 39.73889 | -73.65685 | 26028 ft | 391 kts | 223° |
| 2026-04-30 20:57 | 39.71811 | -73.67993 | 26371 ft | 394 kts | 223° |
| 2026-04-30 20:58 | 39.68302 | -73.71890 | 26962 ft | 397 kts | 223° |
| 2026-04-30 20:58 | 39.66219 | -73.74198 | 27307 ft | 399 kts | 223° |
| 2026-04-30 20:58 | 39.64104 | -73.76538 | 27639 ft | 400 kts | 223° |
| 2026-04-30 20:58 | 39.61969 | -73.78901 | 27994 ft | 402 kts | 223° |
| 2026-04-30 20:59 | 39.57749 | -73.83562 | 28966 ft | 399 kts | 223° |
| 2026-04-30 20:59 | 39.55629 | -73.85900 | 29473 ft | 397 kts | 223° |
| 2026-04-30 21:00 | 39.51426 | -73.90523 | 30397 ft | 394 kts | 223° |
| 2026-04-30 21:00 | 39.47247 | -73.95115 | 31209 ft | 392 kts | 223° |
| 2026-04-30 21:01 | 39.43110 | -73.99652 | 32024 ft | 391 kts | 223° |
| 2026-04-30 21:01 | 39.41028 | -74.01941 | 32439 ft | 391 kts | 223° |
| 2026-04-30 21:01 | 39.36901 | -74.06473 | 33162 ft | 390 kts | 223° |
| 2026-04-30 21:02 | 39.34826 | -74.08740 | 33588 ft | 390 kts | 223° |
| 2026-04-30 21:02 | 39.32754 | -74.11004 | 33972 ft | 389 kts | 223° |
| 2026-04-30 21:02 | 39.30682 | -74.13266 | 34302 ft | 389 kts | 223° |
| 2026-04-30 21:02 | 39.28639 | -74.15494 | 34617 ft | 388 kts | 223° |
| 2026-04-30 21:03 | 39.26574 | -74.17746 | 34933 ft | 387 kts | 223° |
| 2026-04-30 21:03 | 39.24505 | -74.19997 | 35232 ft | 387 kts | 223° |
| 2026-04-30 21:03 | 39.22443 | -74.22235 | 35538 ft | 387 kts | 223° |
| 2026-04-30 21:03 | 39.20407 | -74.24442 | 35774 ft | 387 kts | 223° |
| 2026-04-30 21:04 | 39.18333 | -74.26693 | 35841 ft | 391 kts | 223° |
| 2026-04-30 21:04 | 39.12053 | -74.33490 | 35849 ft | 394 kts | 223° |
| 2026-04-30 21:05 | 39.07849 | -74.38024 | 35849 ft | 395 kts | 223° |
| 2026-04-30 21:05 | 39.03649 | -74.42563 | 35852 ft | 396 kts | 223° |
| 2026-04-30 21:06 | 38.99422 | -74.47127 | 35853 ft | 396 kts | 223° |
| 2026-04-30 21:06 | 38.95207 | -74.51661 | 35844 ft | 397 kts | 223° |
| 2026-04-30 21:07 | 38.91022 | -74.56309 | 35851 ft | 396 kts | 225° |
| 2026-04-30 21:07 | 38.86994 | -74.61094 | 35858 ft | 396 kts | 226° |
| 2026-04-30 21:08 | 38.82957 | -74.65908 | 35866 ft | 396 kts | 226° |
| 2026-04-30 21:08 | 38.78873 | -74.70696 | 35821 ft | 396 kts | 225° |
| 2026-04-30 21:09 | 38.74806 | -74.75420 | 35839 ft | 396 kts | 225° |
| 2026-04-30 21:09 | 38.70618 | -74.79929 | 35846 ft | 397 kts | 223° |
| 2026-04-30 21:10 | 38.66276 | -74.84351 | 35853 ft | 398 kts | 222° |
| 2026-04-30 21:10 | 38.61948 | -74.88778 | 35855 ft | 397 kts | 223° |
| 2026-04-30 21:11 | 38.57671 | -74.93203 | 35840 ft | 397 kts | 223° |
| 2026-04-30 21:11 | 38.53391 | -74.97652 | 35848 ft | 398 kts | 223° |
| 2026-04-30 21:12 | 38.49170 | -75.02212 | 35868 ft | 397 kts | 225° |
| 2026-04-30 21:12 | 38.45016 | -75.06802 | 35897 ft | 398 kts | 223° |
| 2026-04-30 21:13 | 38.40584 | -75.11103 | 35889 ft | 401 kts | 220° |
| 2026-04-30 21:13 | 38.36059 | -75.15265 | 35850 ft | 402 kts | 220° |
| 2026-04-30 21:14 | 38.31569 | -75.19445 | 35873 ft | 402 kts | 221° |
| 2026-04-30 21:14 | 38.27078 | -75.23699 | 35879 ft | 402 kts | 221° |
| 2026-04-30 21:15 | 38.22596 | -75.27966 | 35881 ft | 402 kts | 221° |
| 2026-04-30 21:15 | 38.18124 | -75.32191 | 35855 ft | 402 kts | 221° |
| 2026-04-30 21:16 | 38.13625 | -75.36416 | 35856 ft | 401 kts | 221° |
| 2026-04-30 21:16 | 38.09157 | -75.40622 | 35861 ft | 401 kts | 221° |
| 2026-04-30 21:17 | 38.04654 | -75.44855 | 35890 ft | 402 kts | 221° |
| 2026-04-30 21:17 | 38.00067 | -75.48943 | 35877 ft | 403 kts | 220° |
| 2026-04-30 21:18 | 37.95443 | -75.52908 | 35870 ft | 403 kts | 220° |
| 2026-04-30 21:18 | 37.90791 | -75.56902 | 35881 ft | 403 kts | 221° |
| 2026-04-30 21:19 | 37.86166 | -75.60922 | 35887 ft | 402 kts | 221° |
| 2026-04-30 21:19 | 37.81512 | -75.64828 | 35886 ft | 404 kts | 218° |
| 2026-04-30 21:20 | 37.76681 | -75.68449 | 35858 ft | 406 kts | 217° |
| 2026-04-30 21:20 | 37.71784 | -75.72015 | 35877 ft | 405 kts | 218° |
| 2026-04-30 21:21 | 37.66914 | -75.75627 | 35885 ft | 405 kts | 218° |
| 2026-04-30 21:22 | 37.59678 | -75.81068 | 35881 ft | 405 kts | 218° |
| 2026-04-30 21:23 | 37.50067 | -75.88505 | 35877 ft | 403 kts | 222° |
| 2026-04-30 21:23 | 37.43293 | -75.94678 | 35876 ft | 402 kts | 223° |
| 2026-04-30 21:24 | 37.38773 | -75.98776 | 35877 ft | 403 kts | 222° |
| 2026-04-30 21:24 | 37.34179 | -76.02840 | 35846 ft | 403 kts | 223° |
| 2026-04-30 21:25 | 37.27278 | -76.08908 | 35874 ft | 402 kts | 223° |
| 2026-04-30 21:26 | 37.20424 | -76.14951 | 35903 ft | 402 kts | 223° |
| 2026-04-30 21:27 | 37.13572 | -76.20979 | 35845 ft | 402 kts | 224° |
| 2026-04-30 21:27 | 37.08973 | -76.25014 | 35870 ft | 402 kts | 224° |
| 2026-04-30 21:28 | 37.02131 | -76.31005 | 35882 ft | 401 kts | 224° |
| 2026-04-30 21:29 | 36.95282 | -76.36988 | 35918 ft | 401 kts | 224° |
| 2026-04-30 21:30 | 36.83905 | -76.46909 | 35891 ft | 399 kts | 225° |
| 2026-04-30 21:31 | 36.72516 | -76.56791 | 35915 ft | 399 kts | 225° |
| 2026-04-30 21:32 | 36.65682 | -76.62704 | 35894 ft | 399 kts | 225° |
| 2026-04-30 21:32 | 36.61117 | -76.66652 | 35908 ft | 398 kts | 225° |
| 2026-04-30 21:33 | 36.54305 | -76.72526 | 35886 ft | 398 kts | 225° |
| 2026-04-30 21:34 | 36.49733 | -76.76464 | 35885 ft | 398 kts | 225° |
| 2026-04-30 21:34 | 36.42922 | -76.82319 | 35871 ft | 399 kts | 226° |
| 2026-04-30 21:35 | 36.38351 | -76.86245 | 35880 ft | 398 kts | 226° |
| 2026-04-30 21:35 | 36.33810 | -76.90168 | 35891 ft | 398 kts | 226° |
| 2026-04-30 21:36 | 36.29298 | -76.94114 | 35900 ft | 397 kts | 227° |
| 2026-04-30 21:37 | 36.20246 | -77.02036 | 35892 ft | 398 kts | 227° |
| 2026-04-30 21:37 | 36.15710 | -77.05984 | 35899 ft | 398 kts | 226° |
| 2026-04-30 21:38 | 36.11171 | -77.09928 | 35902 ft | 398 kts | 227° |
| 2026-04-30 21:38 | 36.06666 | -77.13837 | 35906 ft | 397 kts | 227° |
| 2026-04-30 21:39 | 36.02130 | -77.17769 | 35874 ft | 397 kts | 227° |
| 2026-04-30 21:39 | 35.97601 | -77.21692 | 35891 ft | 398 kts | 227° |
| 2026-04-30 21:40 | 35.93091 | -77.25590 | 35909 ft | 397 kts | 227° |
| 2026-04-30 21:40 | 35.88686 | -77.29651 | 35912 ft | 392 kts | 230° |
| 2026-04-30 21:41 | 35.85145 | -77.33141 | 35908 ft | 391 kts | 231° |
| 2026-04-30 21:41 | 35.80239 | -77.37974 | 35889 ft | 391 kts | 230° |
| 2026-04-30 21:42 | 35.76673 | -77.41427 | 35901 ft | 392 kts | 230° |
| 2026-04-30 21:42 | 35.72366 | -77.45558 | 35911 ft | 392 kts | 230° |
| 2026-04-30 21:43 | 35.68054 | -77.49691 | 35912 ft | 392 kts | 230° |
| 2026-04-30 21:43 | 35.63752 | -77.53812 | 35914 ft | 391 kts | 230° |
| 2026-04-30 21:44 | 35.59476 | -77.57909 | 35854 ft | 391 kts | 230° |
| 2026-04-30 21:44 | 35.55171 | -77.62026 | 35881 ft | 391 kts | 231° |
| 2026-04-30 21:45 | 35.50891 | -77.66118 | 35906 ft | 391 kts | 231° |
| 2026-04-30 21:45 | 35.46579 | -77.70234 | 35917 ft | 391 kts | 231° |
| 2026-04-30 21:46 | 35.42300 | -77.74312 | 35929 ft | 391 kts | 231° |
| 2026-04-30 21:46 | 35.37992 | -77.78405 | 35924 ft | 391 kts | 230° |
| 2026-04-30 21:47 | 35.33704 | -77.82472 | 35920 ft | 391 kts | 230° |
| 2026-04-30 21:47 | 35.29392 | -77.86561 | 35913 ft | 391 kts | 231° |
| 2026-04-30 21:48 | 35.25109 | -77.90620 | 35926 ft | 391 kts | 231° |
| 2026-04-30 21:48 | 35.20798 | -77.94706 | 35920 ft | 391 kts | 231° |
| 2026-04-30 21:49 | 35.16515 | -77.98757 | 35924 ft | 391 kts | 231° |
| 2026-04-30 21:49 | 35.12195 | -78.02827 | 35881 ft | 392 kts | 231° |
| 2026-04-30 21:50 | 35.07888 | -78.06884 | 35895 ft | 392 kts | 231° |
| 2026-04-30 21:50 | 35.03553 | -78.10964 | 35901 ft | 393 kts | 230° |
| 2026-04-30 21:51 | 34.99213 | -78.15038 | 35902 ft | 393 kts | 230° |
| 2026-04-30 21:51 | 34.94895 | -78.19084 | 35906 ft | 393 kts | 230° |
| 2026-04-30 21:52 | 34.90547 | -78.23159 | 35881 ft | 394 kts | 230° |
| 2026-04-30 21:52 | 34.86203 | -78.27232 | 35892 ft | 396 kts | 230° |
| 2026-04-30 21:53 | 34.81844 | -78.31304 | 35907 ft | 397 kts | 230° |
| 2026-04-30 21:53 | 34.77446 | -78.35402 | 35915 ft | 397 kts | 230° |
| 2026-04-30 21:54 | 34.73051 | -78.39496 | 35912 ft | 397 kts | 230° |
| 2026-04-30 21:54 | 34.68680 | -78.43557 | 35866 ft | 397 kts | 230° |
| 2026-04-30 21:55 | 34.64277 | -78.47650 | 35876 ft | 397 kts | 230° |
| 2026-04-30 21:55 | 34.59902 | -78.51717 | 35885 ft | 398 kts | 230° |
| 2026-04-30 21:56 | 34.55485 | -78.55814 | 35892 ft | 398 kts | 230° |
| 2026-04-30 21:56 | 34.51094 | -78.59879 | 35898 ft | 399 kts | 230° |
| 2026-04-30 21:57 | 34.46665 | -78.63974 | 35903 ft | 400 kts | 230° |
| 2026-04-30 21:57 | 34.42257 | -78.68039 | 35882 ft | 401 kts | 230° |
| 2026-04-30 21:58 | 34.37757 | -78.72082 | 35897 ft | 404 kts | 228° |
| 2026-04-30 21:58 | 34.33111 | -78.75936 | 35886 ft | 407 kts | 226° |
| 2026-04-30 21:59 | 34.28398 | -78.79767 | 35894 ft | 407 kts | 227° |
| 2026-04-30 22:00 | 34.21407 | -78.85550 | 35855 ft | 406 kts | 227° |
| 2026-04-30 22:00 | 34.14408 | -78.91403 | 35887 ft | 408 kts | 227° |
| 2026-04-30 22:01 | 34.09757 | -78.95279 | 35896 ft | 408 kts | 227° |
| 2026-04-30 22:01 | 34.05070 | -78.99165 | 35902 ft | 408 kts | 227° |
| 2026-04-30 22:02 | 34.00371 | -79.03047 | 35909 ft | 408 kts | 227° |
| 2026-04-30 22:02 | 33.95701 | -79.06900 | 35883 ft | 409 kts | 227° |
| 2026-04-30 22:03 | 33.90999 | -79.10790 | 35899 ft | 410 kts | 227° |
| 2026-04-30 22:03 | 33.86286 | -79.14680 | 35901 ft | 410 kts | 227° |
| 2026-04-30 22:04 | 33.81596 | -79.18552 | 35908 ft | 411 kts | 227° |
| 2026-04-30 22:05 | 33.74524 | -79.24368 | 35913 ft | 411 kts | 227° |
| 2026-04-30 22:05 | 33.69784 | -79.28269 | 35885 ft | 414 kts | 227° |
| 2026-04-30 22:06 | 33.65051 | -79.32176 | 35894 ft | 413 kts | 227° |
| 2026-04-30 22:06 | 33.58015 | -79.38176 | 35908 ft | 413 kts | 228° |
| 2026-04-30 22:07 | 33.53351 | -79.42160 | 35915 ft | 413 kts | 228° |
| 2026-04-30 22:07 | 33.48655 | -79.46147 | 35887 ft | 413 kts | 228° |
| 2026-04-30 22:08 | 33.43984 | -79.50092 | 35889 ft | 414 kts | 227° |
| 2026-04-30 22:08 | 33.39266 | -79.54074 | 35907 ft | 414 kts | 228° |
| 2026-04-30 22:09 | 33.34568 | -79.58039 | 35903 ft | 415 kts | 227° |
| 2026-04-30 22:09 | 33.29844 | -79.62019 | 35906 ft | 416 kts | 227° |
| 2026-04-30 22:10 | 33.25101 | -79.66008 | 35893 ft | 415 kts | 227° |
| 2026-04-30 22:10 | 33.20471 | -79.69901 | 35872 ft | 417 kts | 227° |
| 2026-04-30 22:11 | 33.13332 | -79.75900 | 35877 ft | 418 kts | 227° |
| 2026-04-30 22:12 | 33.08586 | -79.79874 | 35890 ft | 419 kts | 227° |
| 2026-04-30 22:12 | 33.03793 | -79.83874 | 35911 ft | 419 kts | 227° |
| 2026-04-30 22:13 | 32.99040 | -79.87840 | 35915 ft | 418 kts | 227° |
| 2026-04-30 22:13 | 32.94268 | -79.91820 | 35907 ft | 418 kts | 227° |
| 2026-04-30 22:14 | 32.89524 | -79.95771 | 35908 ft | 418 kts | 227° |
| 2026-04-30 22:14 | 32.84746 | -79.99751 | 35908 ft | 418 kts | 227° |
| 2026-04-30 22:15 | 32.80005 | -80.03693 | 35905 ft | 418 kts | 227° |
| 2026-04-30 22:15 | 32.75218 | -80.07658 | 35865 ft | 418 kts | 227° |
| 2026-04-30 22:16 | 32.70451 | -80.11607 | 35889 ft | 420 kts | 226° |
| 2026-04-30 22:17 | 32.60852 | -80.19533 | 35911 ft | 421 kts | 227° |
| 2026-04-30 22:17 | 32.53625 | -80.25494 | 35910 ft | 421 kts | 227° |
| 2026-04-30 22:18 | 32.45904 | -80.30747 | 35874 ft | 430 kts | 220° |
| 2026-04-30 22:19 | 32.38000 | -80.35727 | 35899 ft | 429 kts | 220° |
| 2026-04-30 22:20 | 32.30113 | -80.40700 | 35903 ft | 429 kts | 220° |
| 2026-04-30 22:20 | 32.22202 | -80.45685 | 35873 ft | 428 kts | 220° |
| 2026-04-30 22:21 | 32.16961 | -80.48980 | 35882 ft | 428 kts | 220° |
| 2026-04-30 22:21 | 32.11701 | -80.52297 | 35890 ft | 427 kts | 220° |
| 2026-04-30 22:22 | 32.06437 | -80.55604 | 35890 ft | 427 kts | 220° |
| 2026-04-30 22:22 | 32.01211 | -80.58871 | 35890 ft | 427 kts | 220° |
| 2026-04-30 22:23 | 31.95961 | -80.62154 | 35847 ft | 425 kts | 220° |
| 2026-04-30 22:23 | 31.90756 | -80.65412 | 35870 ft | 425 kts | 220° |
| 2026-04-30 22:24 | 31.85526 | -80.68678 | 35882 ft | 425 kts | 220° |
| 2026-04-30 22:24 | 31.80311 | -80.71924 | 35892 ft | 425 kts | 220° |
| 2026-04-30 22:25 | 31.75067 | -80.75187 | 35890 ft | 425 kts | 220° |
| 2026-04-30 22:25 | 31.69882 | -80.78413 | 35854 ft | 425 kts | 220° |
| 2026-04-30 22:26 | 31.62019 | -80.83302 | 35875 ft | 426 kts | 219° |
| 2026-04-30 22:27 | 31.56795 | -80.86539 | 35878 ft | 426 kts | 219° |
| 2026-04-30 22:27 | 31.48938 | -80.91394 | 35863 ft | 427 kts | 219° |
| 2026-04-30 22:28 | 31.41064 | -80.96256 | 35851 ft | 428 kts | 219° |
| 2026-04-30 22:29 | 31.30510 | -81.02770 | 35874 ft | 429 kts | 219° |
| 2026-04-30 22:30 | 31.19621 | -81.06257 | 35836 ft | 472 kts | 192° |
| 2026-04-30 22:31 | 31.09738 | -81.06433 | 35852 ft | 473 kts | 192° |
| 2026-04-30 22:32 | 30.93322 | -81.06766 | 35861 ft | 474 kts | 191° |
| 2026-04-30 22:33 | 30.76840 | -81.07109 | 35885 ft | 474 kts | 191° |
| 2026-04-30 22:35 | 30.60329 | -81.07475 | 35879 ft | 473 kts | 192° |
| 2026-04-30 22:36 | 30.43966 | -81.08523 | 35890 ft | 471 kts | 193° |
| 2026-04-30 22:37 | 30.30881 | -81.09324 | 35894 ft | 471 kts | 193° |
| 2026-04-30 22:38 | 30.17798 | -81.10094 | 35903 ft | 471 kts | 193° |
| 2026-04-30 22:39 | 30.08012 | -81.10685 | 35872 ft | 470 kts | 192° |
| 2026-04-30 22:40 | 29.88392 | -81.11847 | 35891 ft | 472 kts | 192° |
| 2026-04-30 22:41 | 29.78406 | -81.10517 | 35874 ft | 500 kts | 167° |
| 2026-04-30 22:41 | 29.71984 | -81.07404 | 35888 ft | 504 kts | 163° |
| 2026-04-30 22:43 | 29.52606 | -80.97939 | 35907 ft | 504 kts | 164° |
| 2026-04-30 22:44 | 29.39723 | -80.91645 | 35929 ft | 502 kts | 163° |
| 2026-04-30 22:45 | 29.20473 | -80.82299 | 35871 ft | 501 kts | 162° |
| 2026-04-30 22:47 | 29.01200 | -80.72974 | 35895 ft | 501 kts | 162° |
| 2026-04-30 22:48 | 28.88330 | -80.66972 | 35874 ft | 499 kts | 163° |
| 2026-04-30 22:49 | 28.68931 | -80.58408 | 35882 ft | 498 kts | 163° |
| 2026-04-30 22:51 | 28.49634 | -80.49805 | 35868 ft | 496 kts | 163° |
| 2026-04-30 22:52 | 28.39955 | -80.45516 | 35872 ft | 496 kts | 163° |
| 2026-04-30 22:53 | 28.27116 | -80.39825 | 35888 ft | 495 kts | 162° |
| 2026-04-30 22:53 | 28.17512 | -80.35584 | 35901 ft | 495 kts | 163° |
| 2026-04-30 22:55 | 28.01413 | -80.28778 | 35904 ft | 493 kts | 165° |
| 2026-04-30 22:56 | 27.88463 | -80.23859 | 35722 ft | 492 kts | 165° |
| 2026-04-30 22:56 | 27.78801 | -80.20075 | 35004 ft | 491 kts | 164° |
| 2026-04-30 22:57 | 27.72323 | -80.17546 | 34533 ft | 490 kts | 165° |
| 2026-04-30 22:57 | 27.65873 | -80.15039 | 34072 ft | 488 kts | 165° |
| 2026-04-30 22:58 | 27.59453 | -80.12534 | 33134 ft | 490 kts | 165° |
| 2026-04-30 22:59 | 27.49715 | -80.08513 | 30210 ft | 504 kts | 164° |
| 2026-04-30 22:59 | 27.39754 | -80.04364 | 27419 ft | 503 kts | 163° |